Weather at Naval Station Juan Magluyan Heliport

Public forecast

Using degrees Celsius for public forecast. Weather courtesy of forecast.io.

Closest aviation weather report (METAR) to Naval Station Juan Magluyan Heliport

Closest report is Tawau Airport, 114.9 nm (212.8 km) WSW.

2024/05/24 01:00 (retrieved 50 minutes ago)

WBKW 240100Z VRB03KT 9999 FEW016 31/26 Q1009

Closest aviation forecast (TAF) to Naval Station Juan Magluyan Heliport

Forecast is more than 12 hours old.

Closest forecast is Car Nicobar Air Force Base, 1,630.5 nm (3,019.7 km) W.

2024/05/23 12:00 (retrieved 14 hours ago)

TAF VOCX 230930Z 2312/2324 23010KT 6000 SCT015 SCT090 BKN200 TEMPO 2316/2320 24010G20KT 6000 RA SCT015 SCT018 FEW025TCU SCT090 BKN200